Time;durP1;ratioP1;P1;durP2;ratioP2;P2;SDS_P1;SDS_P2;PMS_P1;PMS_P2;Temp;Humidity;BMP_temperature;BMP_pressure;BME280_temperature;BME280_humidity;BME280_pressure;Samples;Min_cycle;Max_cycle;Signal;HPM_P1;HPM_P2
2022/03/30 04:48:41;;;;;;;31.00;23.43;;;12.40;77.00;;;;;;6095264;23;20480;-89
2022/03/30 04:51:08;;;;;;;30.30;23.87;;;12.30;78.10;;;;;;6191476;23;20409;-89
2022/03/30 04:53:35;;;;;;;32.77;25.13;;;12.20;78.70;;;;;;6197742;23;20392;-88
2022/03/30 04:56:01;;;;;;;30.07;24.47;;;12.20;81.10;;;;;;6188827;23;20475;-89
2022/03/30 04:58:28;;;;;;;35.03;25.47;;;12.20;82.10;;;;;;6195745;23;20429;-89
2022/03/30 05:00:55;;;;;;;37.37;27.87;;;12.00;84.10;;;;;;6214694;23;20417;-89
2022/03/30 05:03:21;;;;;;;31.50;22.23;;;11.90;84.50;;;;;;6213898;23;20448;-88
2022/03/30 05:05:50;;;;;;;33.47;24.50;;;11.90;84.60;;;;;;6214397;23;20390;-89
2022/03/30 05:08:17;;;;;;;30.27;25.00;;;11.90;86.60;;;;;;6213173;23;20438;-88
2022/03/30 05:10:46;;;;;;;35.73;24.90;;;12.00;90.10;;;;;;6193606;23;20417;-89
2022/03/30 05:13:13;;;;;;;35.50;26.00;;;11.80;90.30;;;;;;6214156;23;20470;-90
2022/03/30 05:15:40;;;;;;;29.00;22.77;;;11.80;90.40;;;;;;6214114;23;20454;-88
2022/03/30 05:18:07;;;;;;;35.70;23.83;;;11.70;91.60;;;;;;6214203;23;20414;-87
2022/03/30 05:20:34;;;;;;;28.93;23.47;;;11.60;91.80;;;;;;6203342;23;20398;-88
2022/03/30 05:23:03;;;;;;;32.10;22.07;;;11.60;93.10;;;;;;6200172;23;20717;-89
2022/03/30 05:25:29;;;;;;;33.10;20.50;;;11.60;94.50;;;;;;6199374;23;20406;-88
2022/03/30 05:27:56;;;;;;;28.73;21.20;;;11.60;95.60;;;;;;6196472;23;20442;-88
2022/03/30 05:30:23;;;;;;;27.43;20.23;;;11.60;96.60;;;;;;6194055;23;20464;-89
2022/03/30 05:32:50;;;;;;;27.43;19.33;;;11.50;97.60;;;;;;6205139;23;20397;-88
2022/03/30 05:35:17;;;;;;;23.50;16.03;;;11.50;98.20;;;;;;6212530;23;20407;-88
2022/03/30 05:37:47;;;;;;;24.23;18.33;;;11.40;98.90;;;;;;6213199;23;20414;-88
2022/03/30 05:40:16;;;;;;;27.33;17.37;;;11.40;99.90;;;;;;6206561;23;20423;-89
2022/03/30 05:42:45;;;;;;;33.03;20.67;;;11.30;99.90;;;;;;6225806;23;20488;-89
2022/03/30 05:45:12;;;;;;;26.17;18.30;;;11.30;99.90;;;;;;6223895;23;20401;-89
2022/03/30 05:47:39;;;;;;;25.40;17.90;;;11.40;99.90;;;;;;6223263;23;20435;-89
2022/03/30 05:50:08;;;;;;;30.00;18.60;;;11.30;99.90;;;;;;6222771;23;20468;-89
2022/03/30 05:52:36;;;;;;;31.07;18.37;;;11.30;99.90;;;;;;6235541;23;20405;-89
2022/03/30 05:55:03;;;;;;;29.30;18.97;;;11.30;99.90;;;;;;6238765;23;20410;-89
2022/03/30 05:57:31;;;;;;;33.37;20.03;;;11.30;99.90;;;;;;6222422;23;20432;-90
2022/03/30 05:59:58;;;;;;;32.93;21.60;;;11.20;99.90;;;;;;6224003;23;20401;-90
2022/03/30 06:02:24;;;;;;;29.33;18.83;;;11.20;99.90;;;;;;6227640;23;20461;-89
2022/03/30 06:04:53;;;;;;;27.70;18.13;;;11.30;99.90;;;;;;6221845;23;20412;-90
2022/03/30 06:07:20;;;;;;;19.70;15.37;;;11.20;99.90;;;;;;6219622;23;20511;-89
2022/03/30 06:09:47;;;;;;;28.90;17.63;;;11.20;99.90;;;;;;6219191;23;20412;-90
2022/03/30 06:12:14;;;;;;;27.03;15.60;;;11.20;99.90;;;;;;6223300;23;20435;-89
2022/03/30 06:14:42;;;;;;;26.20;19.80;;;11.20;99.90;;;;;;6239071;23;20410;-89
2022/03/30 06:17:09;;;;;;;25.87;16.40;;;11.20;99.90;;;;;;6222600;23;20444;-90
2022/03/30 06:19:36;;;;;;;21.00;17.30;;;11.10;99.90;;;;;;6218662;23;20406;-89
2022/03/30 06:22:08;;;;;;;28.80;18.73;;;11.10;99.90;;;;;;6219587;23;20914;-90
2022/03/30 06:24:36;;;;;;;23.07;17.87;;;11.10;99.90;;;;;;6216453;23;20452;-89
2022/03/30 06:27:04;;;;;;;24.87;15.80;;;11.10;99.90;;;;;;6216357;23;20766;-90
2022/03/30 06:29:31;;;;;;;22.70;16.00;;;11.10;99.90;;;;;;6218039;23;20406;-89
2022/03/30 06:31:59;;;;;;;23.37;14.73;;;11.20;99.90;;;;;;6215670;23;20899;-90
2022/03/30 06:34:26;;;;;;;25.77;14.67;;;11.10;99.90;;;;;;6217416;23;20411;-90
2022/03/30 06:36:53;;;;;;;29.97;18.70;;;11.10;99.90;;;;;;6218689;23;20405;-90
2022/03/30 06:39:20;;;;;;;32.83;17.00;;;11.10;99.90;;;;;;6219841;23;20423;-89
2022/03/30 06:41:48;;;;;;;22.67;18.43;;;11.10;99.90;;;;;;6219203;23;20413;-89
2022/03/30 06:44:15;;;;;;;29.57;18.47;;;11.10;99.90;;;;;;6233828;23;20448;-89
2022/03/30 06:46:42;;;;;;;27.30;17.00;;;11.20;99.90;;;;;;6243620;23;20394;-89
2022/03/30 06:49:10;;;;;;;24.33;16.40;;;11.10;99.90;;;;;;6218548;23;20776;-89
2022/03/30 06:51:38;;;;;;;29.63;16.70;;;11.20;99.90;;;;;;6217751;23;20479;-89
2022/03/30 06:54:05;;;;;;;24.70;16.33;;;11.20;99.90;;;;;;6218218;23;20412;-89
2022/03/30 06:56:32;;;;;;;26.03;17.83;;;11.20;99.90;;;;;;6222917;23;20405;-89
2022/03/30 06:58:59;;;;;;;22.07;15.43;;;11.20;99.90;;;;;;6218862;23;20405;-89
2022/03/30 07:01:26;;;;;;;25.67;17.27;;;11.20;99.90;;;;;;6222065;23;20409;-89
2022/03/30 07:03:52;;;;;;;26.30;17.50;;;11.30;99.90;;;;;;6235923;23;20965;-90
2022/03/30 07:06:21;;;;;;;22.40;16.93;;;11.30;99.90;;;;;;6219377;23;20723;-89
2022/03/30 07:11:31;;;;;;;26.90;18.03;;;11.30;99.90;;;;;;6226579;23;20507;-89
2022/03/30 07:13:58;;;;;;;23.73;17.70;;;11.40;99.90;;;;;;6220407;23;20405;-89
2022/03/30 07:16:25;;;;;;;29.40;18.80;;;11.30;99.90;;;;;;6220020;23;20433;-89
2022/03/30 07:18:53;;;;;;;28.90;18.33;;;11.30;99.90;;;;;;6217154;23;20433;-89
2022/03/30 07:21:22;;;;;;;25.30;18.10;;;11.30;99.90;;;;;;6220188;23;20410;-89
2022/03/30 07:23:48;;;;;;;28.03;21.93;;;11.30;99.90;;;;;;6218052;23;20528;-89
2022/03/30 07:26:15;;;;;;;34.20;24.07;;;11.20;99.90;;;;;;6218138;23;20726;-89
2022/03/30 07:28:42;;;;;;;28.10;24.00;;;11.20;99.90;;;;;;6217501;23;20429;-89
2022/03/30 07:31:09;;;;;;;33.53;24.67;;;11.30;99.90;;;;;;6227233;23;20405;-89
2022/03/30 07:33:36;;;;;;;39.93;26.80;;;11.30;99.90;;;;;;6225720;23;20389;-89
2022/03/30 07:36:02;;;;;;;35.57;24.60;;;11.30;99.90;;;;;;6238980;23;20402;-88
2022/03/30 07:38:31;;;;;;;34.70;27.33;;;11.30;99.90;;;;;;6227252;23;20428;-89
2022/03/30 07:41:00;;;;;;;33.37;25.00;;;11.40;99.90;;;;;;6223703;23;20437;-89
2022/03/30 07:43:27;;;;;;;32.20;24.93;;;11.40;99.90;;;;;;6240587;23;20447;-89
2022/03/30 07:45:54;;;;;;;33.13;26.07;;;11.50;99.90;;;;;;6222106;23;20431;-89
2022/03/30 07:48:20;;;;;;;34.37;23.63;;;11.40;99.90;;;;;;6217066;23;20420;-89
2022/03/30 07:50:47;;;;;;;32.43;25.60;;;11.30;99.90;;;;;;6216399;23;20424;-88
2022/03/30 07:53:14;;;;;;;37.53;24.23;;;11.30;99.90;;;;;;6217450;23;20412;-89
2022/03/30 07:55:42;;;;;;;39.10;25.90;;;11.30;99.90;;;;;;6218066;23;20395;-89
2022/03/30 07:58:09;;;;;;;31.47;25.33;;;11.20;99.90;;;;;;6219907;23;20428;-89
2022/03/30 08:00:35;;;;;;;31.90;23.73;;;11.30;99.90;;;;;;6216311;23;20411;-89
2022/03/30 08:03:03;;;;;;;37.13;26.30;;;11.20;99.90;;;;;;6216982;23;20443;-89
2022/03/30 08:05:30;;;;;;;36.70;24.00;;;11.30;99.90;;;;;;6235501;23;20410;-89
2022/03/30 08:07:57;;;;;;;31.80;25.30;;;11.30;99.90;;;;;;6230076;23;20439;-89
2022/03/30 08:10:24;;;;;;;35.47;24.40;;;11.30;99.90;;;;;;6222610;23;20411;-89
2022/03/30 08:12:52;;;;;;;36.60;24.40;;;11.30;99.90;;;;;;6223843;23;20409;-88
2022/03/30 08:15:19;;;;;;;34.20;22.80;;;11.40;99.90;;;;;;6234416;23;20473;-89
2022/03/30 08:17:45;;;;;;;35.20;23.57;;;11.50;99.90;;;;;;6227509;23;20934;-89
2022/03/30 08:22:25;;;;;;;36.87;23.43;;;11.70;99.90;;;;;;6225569;23;20465;-89
2022/03/30 08:22:59;;;;;;;26.70;23.57;;;11.80;99.90;;;;;;6227801;23;20472;-88
2022/03/30 08:25:26;;;;;;;28.37;22.80;;;11.90;99.90;;;;;;6219315;23;20403;-90
2022/03/30 08:27:54;;;;;;;35.27;25.23;;;12.00;99.90;;;;;;6217973;23;20437;-89
2022/03/30 08:30:21;;;;;;;36.27;22.97;;;12.00;99.90;;;;;;6220525;23;20405;-89
2022/03/30 08:32:48;;;;;;;35.60;22.73;;;12.00;99.90;;;;;;6225160;23;20405;-89
2022/03/30 08:35:15;;;;;;;33.83;22.17;;;12.00;99.90;;;;;;6221902;23;20405;-88
2022/03/30 08:37:42;;;;;;;36.23;23.20;;;12.00;99.90;;;;;;6217457;23;20426;-89
2022/03/30 08:40:09;;;;;;;28.50;19.37;;;12.00;99.90;;;;;;6216610;23;20501;-88
2022/03/30 08:42:38;;;;;;;34.67;21.90;;;11.90;99.90;;;;;;6216161;23;20397;-89
2022/03/30 08:45:08;;;;;;;30.60;24.83;;;12.00;99.90;;;;;;6216566;23;20817;-88
2022/03/30 08:47:36;;;;;;;42.93;24.40;;;12.00;99.90;;;;;;6235424;23;20432;-88
2022/03/30 08:50:04;;;;;;;30.63;21.57;;;12.00;99.90;;;;;;6233261;23;20412;-88
2022/03/30 08:52:31;;;;;;;34.73;21.60;;;11.90;99.90;;;;;;6219257;23;20488;-88
2022/03/30 08:54:59;;;;;;;35.67;21.07;;;11.90;99.90;;;;;;6193177;23;20408;-87
2022/03/30 08:57:27;;;;;;;38.43;22.93;;;11.90;99.90;;;;;;6242638;23;20416;-88
2022/03/30 09:00:03;;;;;;;29.43;20.90;;;11.90;99.90;;;;;;6237145;23;20411;-89
2022/03/30 09:02:42;;;;;;;25.03;19.17;;;11.90;99.90;;;;;;6219207;23;20399;-89
2022/03/30 09:05:14;;;;;;;38.83;20.30;;;11.90;99.90;;;;;;6218917;23;20429;-89
2022/03/30 09:07:42;;;;;;;32.20;24.43;;;11.90;99.90;;;;;;6218177;23;20937;-89
2022/03/30 09:10:14;;;;;;;44.03;24.43;;;11.90;99.90;;;;;;6225683;23;20461;-89
2022/03/30 09:12:42;;;;;;;37.70;22.90;;;11.90;99.90;;;;;;6240780;23;20445;-87
2022/03/30 09:15:09;;;;;;;35.13;23.03;;;11.90;99.90;;;;;;6241648;23;20409;-88
2022/03/30 09:17:42;;;;;;;36.33;22.00;;;12.00;99.90;;;;;;6233554;23;20420;-88
2022/03/30 09:20:16;;;;;;;32.27;18.73;;;12.00;99.90;;;;;;6221601;23;20455;-88
2022/03/30 09:22:45;;;;;;;33.77;19.17;;;12.10;99.90;;;;;;6219649;23;20931;-88
2022/03/30 09:25:12;;;;;;;31.43;20.63;;;12.10;99.90;;;;;;6220489;23;20970;-88
2022/03/30 09:27:41;;;;;;;28.57;19.03;;;12.20;99.90;;;;;;6219502;23;20944;-88
2022/03/30 09:30:10;;;;;;;32.77;20.50;;;12.20;99.90;;;;;;6230764;23;20441;-88
2022/03/30 09:32:37;;;;;;;24.80;19.37;;;12.20;99.90;;;;;;6244768;23;20393;-87
2022/03/30 09:35:17;;;;;;;30.97;20.63;;;12.20;99.90;;;;;;6243824;23;20416;-88
2022/03/30 09:37:44;;;;;;;41.37;22.80;;;12.20;99.90;;;;;;6232388;23;20452;-88
2022/03/30 09:40:12;;;;;;;29.27;19.93;;;12.20;99.90;;;;;;6221010;23;20417;-89
2022/03/30 09:42:39;;;;;;;31.20;19.93;;;12.20;99.90;;;;;;6221769;23;20482;-89
2022/03/30 09:45:06;;;;;;;27.53;18.80;;;12.30;99.90;;;;;;6220268;23;20459;-89
2022/03/30 09:47:38;;;;;;;29.07;17.60;;;12.30;99.90;;;;;;6223041;23;20430;-89
2022/03/30 09:50:09;;;;;;;26.87;19.17;;;12.30;99.90;;;;;;6219599;23;20393;-89
2022/03/30 09:52:37;;;;;;;33.57;18.63;;;12.40;99.90;;;;;;6226730;23;20402;-89
2022/03/30 09:55:06;;;;;;;25.07;17.40;;;12.40;99.90;;;;;;6241797;23;20417;-90
2022/03/30 09:57:44;;;;;;;28.57;17.87;;;12.40;99.90;;;;;;6228459;23;20429;-87
2022/03/30 10:00:12;;;;;;;31.17;18.90;;;12.50;99.90;;;;;;6223044;23;20453;-86
2022/03/30 10:02:41;;;;;;;26.33;16.90;;;12.50;99.90;;;;;;6223733;23;20409;-86
2022/03/30 10:05:11;;;;;;;28.73;17.77;;;12.50;99.90;;;;;;6221070;23;20464;-86
2022/03/30 10:07:38;;;;;;;27.43;18.60;;;12.50;99.90;;;;;;6220629;23;20942;-86
2022/03/30 10:10:09;;;;;;;28.00;19.30;;;12.50;99.90;;;;;;6219653;23;20405;-86
2022/03/30 10:12:37;;;;;;;28.67;17.53;;;12.60;99.90;;;;;;6223197;23;20459;-89
2022/03/30 10:15:05;;;;;;;33.30;19.40;;;12.50;99.90;;;;;;6218827;23;20409;-90
2022/03/30 10:17:32;;;;;;;23.50;17.27;;;12.50;99.90;;;;;;6230971;23;20417;-88
2022/03/30 10:20:01;;;;;;;27.33;19.30;;;12.60;99.90;;;;;;6243283;23;20408;-90
2022/03/30 10:23:09;;;;;;;26.17;18.80;;;12.50;99.90;;;;;;6236487;23;20389;-83
2022/03/30 10:25:48;;;;;;;25.87;19.20;;;12.50;99.90;;;;;;6203303;23;20972;-83
2022/03/30 10:28:21;;;;;;;22.70;15.70;;;12.50;99.90;;;;;;6202550;23;20393;-84
2022/03/30 10:30:54;;;;;;;29.30;17.83;;;12.50;99.90;;;;;;6201793;23;20397;-84
2022/03/30 10:33:33;;;;;;;25.87;17.87;;;12.60;99.90;;;;;;6205361;23;20486;-83
2022/03/30 10:36:20;;;;;;;29.10;20.43;;;12.60;99.90;;;;;;6209187;23;20396;-83
2022/03/30 10:39:24;;;;;;;28.10;16.77;;;12.70;99.90;;;;;;6204730;23;20450;-83
2022/03/30 10:41:53;;;;;;;27.50;19.13;;;12.90;99.90;;;;;;6192696;23;20944;-82
2022/03/30 10:44:41;;;;;;;27.87;17.53;;;13.00;99.90;;;;;;6203097;23;20454;-83
2022/03/30 10:47:13;;;;;;;31.87;19.80;;;13.20;99.90;;;;;;6192441;23;20398;-82
2022/03/30 10:49:43;;;;;;;23.90;16.67;;;13.50;99.90;;;;;;6193563;23;20378;-82
2022/03/30 10:52:38;;;;;;;20.97;15.37;;;13.90;99.90;;;;;;6193283;23;20402;-82
2022/03/30 10:55:30;;;;;;;18.77;13.70;;;14.50;99.90;;;;;;6192896;23;20419;-83
2022/03/30 10:58:01;;;;;;;14.07;10.30;;;14.90;99.90;;;;;;6197236;23;21031;-82
2022/03/30 11:00:29;;;;;;;17.40;10.87;;;15.00;99.40;;;;;;6206271;23;20407;-82
2022/03/30 11:03:11;;;;;;;15.80;10.70;;;15.00;99.40;;;;;;6189395;23;20440;-83
2022/03/30 11:05:39;;;;;;;23.67;12.70;;;14.80;99.40;;;;;;6187911;23;20948;-84
2022/03/30 11:08:26;;;;;;;18.43;11.57;;;14.60;99.70;;;;;;6197822;23;20415;-83
2022/03/30 11:10:55;;;;;;;17.10;10.33;;;14.40;99.80;;;;;;6201954;23;20409;-82
2022/03/30 11:13:26;;;;;;;15.73;11.90;;;14.30;99.90;;;;;;6201498;23;20420;-81
2022/03/30 11:16:13;;;;;;;16.70;11.03;;;14.20;99.90;;;;;;6201920;23;20417;-82
2022/03/30 11:18:58;;;;;;;22.40;11.80;;;14.10;99.90;;;;;;6190306;23;20398;-82
2022/03/30 11:21:26;;;;;;;21.70;12.13;;;14.00;99.90;;;;;;6190526;23;20436;-83
2022/03/30 11:24:18;;;;;;;19.37;11.40;;;14.00;99.90;;;;;;6191777;23;20793;-81
2022/03/30 11:27:20;;;;;;;21.73;12.70;;;13.90;99.90;;;;;;6196820;23;20425;-82
2022/03/30 11:30:11;;;;;;;21.10;12.20;;;13.90;99.90;;;;;;6190275;23;20386;-82
2022/03/30 11:32:58;;;;;;;18.87;12.53;;;13.90;99.90;;;;;;6188794;23;20426;-83
2022/03/30 11:35:29;;;;;;;18.93;11.73;;;13.90;99.90;;;;;;6189108;23;20502;-82
2022/03/30 11:38:21;;;;;;;16.90;11.37;;;13.50;99.90;;;;;;6187584;23;20770;-83
2022/03/30 11:40:49;;;;;;;22.63;12.13;;;13.50;99.90;;;;;;6190771;23;20391;-83
2022/03/30 11:43:19;;;;;;;20.80;13.47;;;13.50;99.90;;;;;;6191843;23;20974;-83
2022/03/30 11:45:46;;;;;;;18.73;12.20;;;13.60;99.90;;;;;;6188576;23;20407;-81
2022/03/30 11:48:14;;;;;;;14.73;11.97;;;13.50;99.90;;;;;;6189008;23;20461;-82
2022/03/30 11:50:42;;;;;;;19.13;11.47;;;13.60;99.90;;;;;;6195324;23;20437;-82
2022/03/30 11:53:11;;;;;;;16.20;11.70;;;13.70;99.90;;;;;;6198472;23;20437;-81
2022/03/30 11:55:50;;;;;;;18.03;11.97;;;13.80;99.90;;;;;;6200724;23;20470;-80
2022/03/30 11:58:26;;;;;;;20.13;11.37;;;13.50;99.90;;;;;;6194252;23;20387;-82
2022/03/30 12:00:53;;;;;;;21.47;12.90;;;13.40;99.90;;;;;;6187723;23;20403;-82
2022/03/30 12:03:21;;;;;;;15.43;11.30;;;13.50;99.90;;;;;;6187233;23;20429;-82
2022/03/30 12:05:51;;;;;;;19.83;13.43;;;13.70;99.90;;;;;;6188850;23;20490;-83
2022/03/30 12:08:19;;;;;;;25.13;15.93;;;13.70;99.90;;;;;;6189134;23;20383;-82
2022/03/30 12:10:48;;;;;;;27.70;16.23;;;13.80;99.90;;;;;;6189635;23;20415;-82
2022/03/30 12:13:22;;;;;;;21.50;15.77;;;13.80;99.90;;;;;;6189704;23;20485;-82
2022/03/30 12:16:09;;;;;;;19.27;15.10;;;13.80;99.90;;;;;;6191213;23;20831;-84
2022/03/30 12:18:44;;;;;;;20.97;16.20;;;13.70;99.90;;;;;;6192276;23;20452;-82
2022/03/30 12:21:14;;;;;;;21.30;17.27;;;13.50;99.90;;;;;;6195657;23;20412;-83
2022/03/30 12:23:53;;;;;;;20.93;17.40;;;13.50;99.90;;;;;;6201023;23;20446;-83
2022/03/30 12:26:20;;;;;;;26.47;16.67;;;13.50;99.90;;;;;;6205457;23;20394;-83
2022/03/30 12:28:47;;;;;;;18.83;16.50;;;13.50;99.90;;;;;;6205603;23;20505;-82
2022/03/30 12:31:15;;;;;;;21.47;17.60;;;13.50;99.90;;;;;;6201912;23;20402;-81
2022/03/30 12:33:44;;;;;;;25.27;18.33;;;13.60;99.90;;;;;;6199151;23;20459;-82
2022/03/30 12:36:15;;;;;;;23.60;18.50;;;13.60;99.90;;;;;;6194604;23;20445;-82
2022/03/30 12:38:42;;;;;;;24.80;19.90;;;13.80;99.90;;;;;;6195660;23;20452;-84
2022/03/30 12:41:08;;;;;;;20.27;16.30;;;13.80;99.90;;;;;;6191730;23;20410;-83
2022/03/30 12:43:35;;;;;;;20.30;12.77;;;13.70;99.90;;;;;;6197349;23;20426;-82
2022/03/30 12:46:03;;;;;;;17.17;11.20;;;13.60;99.90;;;;;;6201073;23;20410;-82
2022/03/30 12:48:33;;;;;;;12.10;10.33;;;13.50;99.90;;;;;;6192145;23;20390;-83
2022/03/30 12:51:02;;;;;;;13.23;9.73;;;13.30;99.90;;;;;;6197588;23;20398;-83
2022/03/30 12:53:31;;;;;;;10.70;9.60;;;13.20;99.90;;;;;;6198382;23;20827;-81
2022/03/30 12:56:11;;;;;;;10.37;9.13;;;13.10;99.90;;;;;;6194287;23;20745;-81
2022/03/30 12:58:51;;;;;;;9.77;8.90;;;13.10;99.90;;;;;;6207753;23;20377;-83
2022/03/30 13:01:28;;;;;;;9.13;8.23;;;12.80;99.90;;;;;;6193692;23;20390;-82
2022/03/30 13:03:56;;;;;;;10.30;9.30;;;12.70;99.90;;;;;;6194022;23;20429;-81
2022/03/30 13:06:25;;;;;;;10.07;9.07;;;12.60;99.90;;;;;;6189964;23;20743;-82
2022/03/30 13:09:12;;;;;;;8.90;8.07;;;12.50;99.90;;;;;;6189340;23;20410;-81
2022/03/30 13:11:43;;;;;;;8.53;7.70;;;12.50;99.90;;;;;;6189721;23;20397;-83
2022/03/30 13:14:15;;;;;;;9.87;8.87;;;12.40;99.90;;;;;;6188968;23;20425;-82
2022/03/30 13:16:41;;;;;;;9.30;8.50;;;12.30;99.90;;;;;;6188457;23;20406;-81
2022/03/30 13:19:12;;;;;;;10.10;9.10;;;12.20;99.90;;;;;;6189936;23;20405;-83
2022/03/30 13:21:43;;;;;;;9.40;8.60;;;12.20;99.90;;;;;;6194899;23;20391;-82
2022/03/30 13:24:11;;;;;;;9.67;8.77;;;12.30;99.90;;;;;;6194948;23;20442;-81
2022/03/30 13:26:39;;;;;;;9.23;8.43;;;12.50;99.90;;;;;;6191937;23;20456;-82
2022/03/30 13:29:07;;;;;;;9.40;8.50;;;12.70;99.90;;;;;;6191525;23;20909;-82
2022/03/30 13:31:36;;;;;;;9.70;8.80;;;13.00;99.90;;;;;;6200903;23;20433;-82
2022/03/30 13:34:05;;;;;;;9.53;8.53;;;13.20;99.90;;;;;;6194553;23;20426;-82
2022/03/30 13:36:33;;;;;;;9.30;8.47;;;13.20;99.90;;;;;;6197455;23;20449;-80
2022/03/30 13:38:59;;;;;;;9.70;8.80;;;13.30;99.90;;;;;;6197744;23;20402;-82
2022/03/30 13:41:26;;;;;;;9.87;8.97;;;13.40;99.90;;;;;;6190545;23;20410;-81
2022/03/30 13:43:53;;;;;;;9.53;8.70;;;13.40;99.90;;;;;;6194615;23;20422;-81
2022/03/30 13:46:20;;;;;;;9.47;8.67;;;13.60;99.90;;;;;;6189564;23;20399;-82
2022/03/30 13:48:47;;;;;;;9.47;8.67;;;13.90;99.90;;;;;;6188863;23;20414;-83
2022/03/30 13:51:14;;;;;;;10.10;9.10;;;14.30;99.90;;;;;;6188426;23;20414;-83
2022/03/30 13:53:43;;;;;;;11.47;10.40;;;14.50;99.90;;;;;;6189615;23;20431;-83
2022/03/30 13:56:10;;;;;;;10.80;9.80;;;14.50;99.90;;;;;;6188981;23;20441;-82
2022/03/30 13:58:38;;;;;;;12.10;10.93;;;14.60;99.90;;;;;;6188746;23;20920;-84
2022/03/30 14:01:06;;;;;;;12.30;11.20;;;14.80;99.90;;;;;;6188963;23;20405;-83
2022/03/30 14:03:34;;;;;;;12.03;10.93;;;14.80;99.30;;;;;;6188190;23;20451;-83
2022/03/30 14:06:02;;;;;;;11.00;10.10;;;14.80;98.70;;;;;;6189055;23;20543;-84
2022/03/30 14:08:29;;;;;;;14.10;12.90;;;14.70;98.60;;;;;;6190171;23;20490;-83
2022/03/30 14:10:58;;;;;;;13.40;12.20;;;14.60;98.60;;;;;;6189283;23;20417;-82
2022/03/30 14:13:25;;;;;;;12.37;11.17;;;14.50;98.50;;;;;;6190612;23;20432;-82
2022/03/30 14:15:53;;;;;;;12.37;11.07;;;14.30;98.80;;;;;;6192324;23;20449;-82
2022/03/30 14:18:21;;;;;;;13.70;12.40;;;14.10;99.20;;;;;;6207619;23;20413;-84
2022/03/30 14:20:49;;;;;;;12.70;11.60;;;14.00;99.50;;;;;;6205740;23;20434;-80
2022/03/30 14:23:16;;;;;;;12.83;11.63;;;13.90;99.50;;;;;;6193768;23;20436;-83
2022/03/30 14:25:42;;;;;;;11.43;10.43;;;13.80;99.50;;;;;;6190931;23;20426;-83
2022/03/30 14:28:11;;;;;;;12.80;11.40;;;13.70;99.50;;;;;;6189449;23;20409;-83
2022/03/30 14:30:38;;;;;;;13.10;11.70;;;13.60;99.50;;;;;;6192290;23;20411;-83
2022/03/30 14:33:07;;;;;;;11.70;10.50;;;13.50;99.60;;;;;;6188618;23;20433;-83
2022/03/30 14:35:35;;;;;;;12.90;11.47;;;13.40;99.60;;;;;;6191022;23;20446;-82
2022/03/30 14:38:06;;;;;;;11.80;10.60;;;13.40;99.40;;;;;;6198240;23;20410;-80
2022/03/30 14:40:33;;;;;;;13.10;11.73;;;13.40;99.60;;;;;;6195724;23;20485;-82
2022/03/30 14:43:00;;;;;;;12.60;11.40;;;13.20;99.40;;;;;;6191327;23;20504;-82
2022/03/30 14:45:28;;;;;;;13.47;12.27;;;13.30;99.60;;;;;;6191725;23;20434;-82
2022/03/30 14:47:55;;;;;;;11.27;10.13;;;13.30;99.30;;;;;;6191099;23;20457;-82
2022/03/30 14:50:22;;;;;;;13.70;12.30;;;13.20;99.10;;;;;;6190012;23;20410;-83
2022/03/30 14:52:49;;;;;;;13.80;12.17;;;13.20;99.20;;;;;;6187933;23;20500;-82
2022/03/30 14:55:17;;;;;;;14.00;11.50;;;13.30;99.30;;;;;;6187095;23;20467;-81
2022/03/30 14:57:44;;;;;;;13.40;12.20;;;13.30;99.10;;;;;;6187565;23;20409;-81
2022/03/30 15:00:16;;;;;;;15.97;14.33;;;13.30;98.80;;;;;;6187549;23;20409;-81
2022/03/30 15:02:44;;;;;;;18.17;15.73;;;13.30;98.90;;;;;;6189423;23;20940;-79
2022/03/30 15:05:11;;;;;;;16.70;14.87;;;13.30;99.20;;;;;;6192757;23;20406;-82
2022/03/30 15:07:38;;;;;;;18.50;16.60;;;13.50;99.30;;;;;;6193216;23;20899;-82
2022/03/30 15:10:05;;;;;;;19.57;17.47;;;13.70;99.30;;;;;;6190307;23;20412;-83
2022/03/30 15:12:33;;;;;;;17.87;16.17;;;13.90;98.60;;;;;;6194520;23;20453;-82
2022/03/30 15:15:00;;;;;;;17.07;15.07;;;14.00;98.30;;;;;;6202234;23;20441;-82
2022/03/30 15:17:28;;;;;;;16.93;15.07;;;14.10;97.90;;;;;;6192692;23;20433;-82
2022/03/30 15:19:56;;;;;;;16.30;14.23;;;14.20;97.30;;;;;;6196263;23;20400;-83
2022/03/30 15:22:23;;;;;;;14.93;13.30;;;14.00;96.70;;;;;;6194499;23;20411;-82
2022/03/30 15:24:50;;;;;;;14.77;12.60;;;14.10;96.70;;;;;;6195694;23;20763;-82
2022/03/30 15:27:17;;;;;;;13.27;11.87;;;14.00;96.40;;;;;;6192496;23;20400;-82
2022/03/30 15:29:44;;;;;;;16.63;13.33;;;13.90;96.40;;;;;;6189660;23;20425;-82
2022/03/30 15:32:11;;;;;;;16.53;13.17;;;13.90;96.00;;;;;;6190977;23;20443;-81
2022/03/30 15:34:37;;;;;;;15.00;13.40;;;13.80;95.80;;;;;;6192592;23;20383;-80
2022/03/30 15:37:07;;;;;;;14.47;12.97;;;13.70;95.90;;;;;;6192144;23;20427;-83
2022/03/30 15:39:33;;;;;;;17.03;15.23;;;13.70;96.40;;;;;;6202142;23;20423;-82
2022/03/30 15:42:00;;;;;;;16.53;14.93;;;13.60;96.10;;;;;;6189875;23;20468;-81
2022/03/30 15:44:27;;;;;;;17.60;15.70;;;13.50;96.20;;;;;;6188218;23;20513;-81
2022/03/30 15:46:54;;;;;;;19.70;17.10;;;13.40;96.40;;;;;;6186964;23;20410;-81
2022/03/30 15:49:21;;;;;;;16.90;15.10;;;13.30;96.80;;;;;;6187277;23;20404;-81
2022/03/30 15:51:48;;;;;;;19.03;17.00;;;13.30;96.90;;;;;;6190063;23;20435;-82
2022/03/30 15:54:19;;;;;;;17.10;14.83;;;13.30;96.80;;;;;;6190560;23;20437;-81
2022/03/30 15:56:46;;;;;;;19.00;14.97;;;13.30;96.60;;;;;;6198163;23;20434;-81
2022/03/30 15:59:13;;;;;;;16.27;14.57;;;13.10;96.10;;;;;;6196272;23;20437;-81
2022/03/30 16:01:39;;;;;;;17.73;15.90;;;13.00;96.30;;;;;;6191545;23;20468;-83
2022/03/30 16:04:06;;;;;;;16.47;14.77;;;12.90;96.30;;;;;;6189357;23;20962;-82
2022/03/30 16:06:34;;;;;;;19.10;16.80;;;13.00;96.60;;;;;;6190153;23;20406;-82
2022/03/30 16:09:02;;;;;;;17.90;16.00;;;13.00;97.00;;;;;;6191096;23;20402;-81
2022/03/30 16:14:16;;;;;;;19.13;17.00;;;12.90;96.90;;;;;;6190153;23;20452;-82
2022/03/30 16:16:43;;;;;;;20.67;17.07;;;12.90;96.90;;;;;;6190051;23;20528;-82
2022/03/30 16:19:12;;;;;;;24.97;21.70;;;12.80;97.20;;;;;;6189328;23;20429;-83
2022/03/30 16:21:39;;;;;;;24.63;20.13;;;12.70;97.30;;;;;;6188690;23;20899;-83
2022/03/30 16:24:08;;;;;;;25.20;21.70;;;12.60;97.80;;;;;;6189553;23;20484;-83
2022/03/30 16:26:36;;;;;;;29.00;22.07;;;12.50;98.20;;;;;;6189478;23;20501;-85
2022/03/30 16:29:03;;;;;;;28.70;23.87;;;12.40;98.50;;;;;;6191101;23;20460;-85
2022/03/30 16:31:34;;;;;;;29.27;23.70;;;12.30;98.60;;;;;;6199616;23;20452;-82
2022/03/30 16:34:02;;;;;;;30.80;24.60;;;12.30;98.60;;;;;;6192496;23;20430;-82
2022/03/30 16:36:29;;;;;;;29.57;24.50;;;12.20;99.00;;;;;;6192104;23;20441;-82
2022/03/30 16:38:56;;;;;;;31.53;26.43;;;12.10;99.30;;;;;;6191595;23;20437;-81
2022/03/30 16:41:23;;;;;;;30.30;25.70;;;12.10;99.40;;;;;;6190889;23;20511;-83
2022/03/30 16:43:51;;;;;;;31.23;25.73;;;12.00;99.30;;;;;;6191715;23;20511;-83
2022/03/30 16:46:18;;;;;;;26.27;22.57;;;12.00;99.40;;;;;;6197322;23;20899;-80
2022/03/30 16:48:45;;;;;;;31.03;26.40;;;11.90;99.50;;;;;;6204047;23;20404;-79
2022/03/30 16:51:12;;;;;;;31.10;24.10;;;11.90;99.30;;;;;;6194757;23;20420;-83
2022/03/30 16:53:38;;;;;;;27.80;23.43;;;11.90;99.10;;;;;;6193667;23;20422;-80
2022/03/30 16:56:05;;;;;;;30.03;25.00;;;11.90;98.90;;;;;;6193149;23;20496;-80
2022/03/30 16:58:32;;;;;;;29.43;25.10;;;11.90;99.10;;;;;;6200365;23;20437;-81
2022/03/30 17:01:00;;;;;;;31.10;24.90;;;11.90;99.00;;;;;;6191843;23;20809;-79
2022/03/30 17:03:28;;;;;;;28.37;23.90;;;11.90;98.90;;;;;;6189031;23;20428;-83
2022/03/30 17:05:56;;;;;;;26.67;22.40;;;11.80;98.80;;;;;;6190222;23;20512;-80
2022/03/30 17:11:09;;;;;;;24.20;21.47;;;11.80;98.60;;;;;;6193276;23;20446;-83
2022/03/30 17:13:36;;;;;;;26.83;22.17;;;11.70;98.90;;;;;;6191808;23;21010;-81
2022/03/30 17:16:04;;;;;;;28.00;23.97;;;11.70;98.50;;;;;;6191442;23;20439;-82
2022/03/30 17:18:31;;;;;;;25.93;23.13;;;11.70;98.70;;;;;;6191389;23;20409;-83
2022/03/30 17:20:59;;;;;;;28.30;23.20;;;11.70;98.80;;;;;;6201174;23;20406;-80
2022/03/30 17:23:26;;;;;;;35.37;25.83;;;11.70;99.20;;;;;;6211155;23;20414;-79
2022/03/30 17:25:57;;;;;;;29.80;24.60;;;11.80;99.30;;;;;;6212718;23;20424;-81
2022/03/30 17:28:24;;;;;;;27.50;22.87;;;11.70;99.30;;;;;;6212650;23;20382;-84
2022/03/30 17:30:51;;;;;;;25.97;21.90;;;11.70;99.30;;;;;;6205153;23;20402;-82
2022/03/30 17:33:19;;;;;;;25.33;22.00;;;11.70;99.80;;;;;;6197951;23;20432;-82
2022/03/30 17:35:46;;;;;;;29.80;25.13;;;11.70;99.60;;;;;;6199922;23;20449;-84